sensor_id;sensor_type;location;lat;lon;timestamp;P1;durP1;ratioP1;P2;durP2;ratioP2
67053;SDS011;53960;51.826;5.850;2023-10-31T00:01:03;6.70;;;2.00;;
67053;SDS011;53960;51.826;5.850;2023-10-31T00:03:28;5.40;;;1.60;;
67053;SDS011;53960;51.826;5.850;2023-10-31T00:05:53;6.13;;;1.60;;
67053;SDS011;53960;51.826;5.850;2023-10-31T00:08:18;6.23;;;1.50;;
67053;SDS011;53960;51.826;5.850;2023-10-31T00:10:44;5.07;;;1.30;;
67053;SDS011;53960;51.826;5.850;2023-10-31T00:13:09;6.23;;;1.30;;
67053;SDS011;53960;51.826;5.850;2023-10-31T00:15:35;6.07;;;1.30;;
67053;SDS011;53960;51.826;5.850;2023-10-31T00:18:00;5.50;;;1.17;;
67053;SDS011;53960;51.826;5.850;2023-10-31T00:20:26;5.03;;;1.00;;
67053;SDS011;53960;51.826;5.850;2023-10-31T00:22:51;6.17;;;1.50;;
67053;SDS011;53960;51.826;5.850;2023-10-31T00:25:16;6.83;;;1.57;;
67053;SDS011;53960;51.826;5.850;2023-10-31T00:27:42;7.00;;;1.30;;
67053;SDS011;53960;51.826;5.850;2023-10-31T00:30:07;7.23;;;1.77;;
67053;SDS011;53960;51.826;5.850;2023-10-31T00:32:33;6.13;;;1.10;;
67053;SDS011;53960;51.826;5.850;2023-10-31T00:34:58;5.60;;;0.97;;
67053;SDS011;53960;51.826;5.850;2023-10-31T00:37:24;6.43;;;1.40;;
67053;SDS011;53960;51.826;5.850;2023-10-31T00:39:49;8.30;;;1.47;;
67053;SDS011;53960;51.826;5.850;2023-10-31T00:42:15;7.60;;;1.40;;
67053;SDS011;53960;51.826;5.850;2023-10-31T00:44:40;8.43;;;1.70;;
67053;SDS011;53960;51.826;5.850;2023-10-31T00:47:05;6.90;;;1.80;;
67053;SDS011;53960;51.826;5.850;2023-10-31T00:49:31;7.10;;;1.60;;
67053;SDS011;53960;51.826;5.850;2023-10-31T00:51:56;7.53;;;1.80;;
67053;SDS011;53960;51.826;5.850;2023-10-31T00:54:22;8.90;;;2.00;;
67053;SDS011;53960;51.826;5.850;2023-10-31T00:56:47;8.00;;;2.25;;
67053;SDS011;53960;51.826;5.850;2023-10-31T00:59:13;7.80;;;2.37;;
67053;SDS011;53960;51.826;5.850;2023-10-31T01:01:38;8.77;;;2.90;;
67053;SDS011;53960;51.826;5.850;2023-10-31T01:04:03;10.93;;;3.30;;
67053;SDS011;53960;51.826;5.850;2023-10-31T01:06:29;10.50;;;3.15;;
67053;SDS011;53960;51.826;5.850;2023-10-31T01:08:54;8.60;;;3.13;;
67053;SDS011;53960;51.826;5.850;2023-10-31T01:11:20;10.10;;;3.17;;
67053;SDS011;53960;51.826;5.850;2023-10-31T01:13:45;10.77;;;3.57;;
67053;SDS011;53960;51.826;5.850;2023-10-31T01:16:10;14.53;;;4.57;;
67053;SDS011;53960;51.826;5.850;2023-10-31T01:18:37;12.60;;;4.50;;
67053;SDS011;53960;51.826;5.850;2023-10-31T01:21:02;12.33;;;4.80;;
67053;SDS011;53960;51.826;5.850;2023-10-31T01:23:28;13.68;;;5.75;;
67053;SDS011;53960;51.826;5.850;2023-10-31T01:25:53;14.67;;;6.67;;
67053;SDS011;53960;51.826;5.850;2023-10-31T01:28:18;13.50;;;6.90;;
67053;SDS011;53960;51.826;5.850;2023-10-31T01:30:44;15.10;;;6.60;;
67053;SDS011;53960;51.826;5.850;2023-10-31T01:33:09;15.30;;;7.30;;
67053;SDS011;53960;51.826;5.850;2023-10-31T01:35:34;12.80;;;7.03;;
67053;SDS011;53960;51.826;5.850;2023-10-31T01:38:00;16.00;;;6.83;;
67053;SDS011;53960;51.826;5.850;2023-10-31T01:40:26;13.57;;;6.67;;
67053;SDS011;53960;51.826;5.850;2023-10-31T01:42:51;13.57;;;6.32;;
67053;SDS011;53960;51.826;5.850;2023-10-31T01:45:16;13.60;;;6.03;;
67053;SDS011;53960;51.826;5.850;2023-10-31T01:47:42;12.53;;;5.60;;
67053;SDS011;53960;51.826;5.850;2023-10-31T01:50:11;13.93;;;5.43;;
67053;SDS011;53960;51.826;5.850;2023-10-31T01:52:36;11.60;;;5.60;;
67053;SDS011;53960;51.826;5.850;2023-10-31T01:55:02;13.05;;;5.38;;
67053;SDS011;53960;51.826;5.850;2023-10-31T01:57:29;12.18;;;5.55;;
67053;SDS011;53960;51.826;5.850;2023-10-31T01:59:55;12.93;;;4.97;;
67053;SDS011;53960;51.826;5.850;2023-10-31T02:02:21;15.15;;;6.10;;
67053;SDS011;53960;51.826;5.850;2023-10-31T02:04:48;13.57;;;5.80;;
67053;SDS011;53960;51.826;5.850;2023-10-31T02:07:14;13.48;;;5.60;;
67053;SDS011;53960;51.826;5.850;2023-10-31T02:09:40;13.83;;;5.73;;
67053;SDS011;53960;51.826;5.850;2023-10-31T02:12:05;13.18;;;5.88;;
67053;SDS011;53960;51.826;5.850;2023-10-31T02:14:30;15.33;;;5.90;;
67053;SDS011;53960;51.826;5.850;2023-10-31T02:16:56;12.90;;;5.20;;
67053;SDS011;53960;51.826;5.850;2023-10-31T02:19:21;16.07;;;5.87;;
67053;SDS011;53960;51.826;5.850;2023-10-31T02:21:47;14.33;;;5.40;;
67053;SDS011;53960;51.826;5.850;2023-10-31T02:24:12;14.15;;;5.50;;
67053;SDS011;53960;51.826;5.850;2023-10-31T02:26:37;13.43;;;6.17;;
67053;SDS011;53960;51.826;5.850;2023-10-31T02:29:03;13.60;;;5.93;;
67053;SDS011;53960;51.826;5.850;2023-10-31T02:31:28;13.73;;;5.73;;
67053;SDS011;53960;51.826;5.850;2023-10-31T02:33:54;13.63;;;5.75;;
67053;SDS011;53960;51.826;5.850;2023-10-31T02:36:20;15.07;;;6.45;;
67053;SDS011;53960;51.826;5.850;2023-10-31T02:38:46;15.87;;;6.23;;
67053;SDS011;53960;51.826;5.850;2023-10-31T02:41:12;13.88;;;6.38;;
67053;SDS011;53960;51.826;5.850;2023-10-31T02:43:37;21.17;;;7.20;;
67053;SDS011;53960;51.826;5.850;2023-10-31T02:46:03;14.65;;;6.90;;
67053;SDS011;53960;51.826;5.850;2023-10-31T02:48:28;17.97;;;7.37;;
67053;SDS011;53960;51.826;5.850;2023-10-31T02:50:56;17.15;;;7.75;;
67053;SDS011;53960;51.826;5.850;2023-10-31T02:53:22;17.08;;;7.82;;
67053;SDS011;53960;51.826;5.850;2023-10-31T02:55:48;19.93;;;8.07;;
67053;SDS011;53960;51.826;5.850;2023-10-31T02:58:14;20.60;;;8.82;;
67053;SDS011;53960;51.826;5.850;2023-10-31T03:00:39;19.57;;;8.80;;
67053;SDS011;53960;51.826;5.850;2023-10-31T03:03:04;21.10;;;8.53;;
67053;SDS011;53960;51.826;5.850;2023-10-31T03:05:30;20.67;;;9.70;;
67053;SDS011;53960;51.826;5.850;2023-10-31T03:07:55;22.23;;;9.53;;
67053;SDS011;53960;51.826;5.850;2023-10-31T03:10:21;21.70;;;10.73;;
67053;SDS011;53960;51.826;5.850;2023-10-31T03:12:46;20.92;;;9.43;;
67053;SDS011;53960;51.826;5.850;2023-10-31T03:15:12;24.35;;;10.93;;
67053;SDS011;53960;51.826;5.850;2023-10-31T03:17:37;23.33;;;11.07;;
67053;SDS011;53960;51.826;5.850;2023-10-31T03:20:03;24.13;;;11.53;;
67053;SDS011;53960;51.826;5.850;2023-10-31T03:22:28;20.77;;;10.33;;
67053;SDS011;53960;51.826;5.850;2023-10-31T03:24:54;24.15;;;11.05;;
67053;SDS011;53960;51.826;5.850;2023-10-31T03:27:19;23.20;;;10.90;;
67053;SDS011;53960;51.826;5.850;2023-10-31T03:29:45;24.23;;;11.07;;
67053;SDS011;53960;51.826;5.850;2023-10-31T03:32:11;23.50;;;11.50;;
67053;SDS011;53960;51.826;5.850;2023-10-31T03:34:36;21.80;;;10.02;;
67053;SDS011;53960;51.826;5.850;2023-10-31T03:37:02;19.63;;;9.83;;
67053;SDS011;53960;51.826;5.850;2023-10-31T03:39:28;20.42;;;10.07;;
67053;SDS011;53960;51.826;5.850;2023-10-31T03:41:53;18.77;;;9.60;;
67053;SDS011;53960;51.826;5.850;2023-10-31T03:44:19;21.73;;;10.10;;
67053;SDS011;53960;51.826;5.850;2023-10-31T03:46:44;19.48;;;9.65;;
67053;SDS011;53960;51.826;5.850;2023-10-31T03:49:10;19.80;;;8.87;;
67053;SDS011;53960;51.826;5.850;2023-10-31T03:51:35;18.20;;;8.20;;
67053;SDS011;53960;51.826;5.850;2023-10-31T03:54:00;18.43;;;7.83;;
67053;SDS011;53960;51.826;5.850;2023-10-31T03:56:25;17.57;;;8.10;;
67053;SDS011;53960;51.826;5.850;2023-10-31T03:58:51;17.63;;;8.10;;
67053;SDS011;53960;51.826;5.850;2023-10-31T04:01:16;18.40;;;7.60;;
67053;SDS011;53960;51.826;5.850;2023-10-31T04:03:42;17.48;;;8.00;;
67053;SDS011;53960;51.826;5.850;2023-10-31T04:06:08;16.85;;;7.57;;
67053;SDS011;53960;51.826;5.850;2023-10-31T04:08:34;17.53;;;7.93;;
67053;SDS011;53960;51.826;5.850;2023-10-31T04:10:59;15.07;;;7.10;;
67053;SDS011;53960;51.826;5.850;2023-10-31T04:13:24;14.73;;;7.13;;
67053;SDS011;53960;51.826;5.850;2023-10-31T04:15:50;18.23;;;7.70;;
67053;SDS011;53960;51.826;5.850;2023-10-31T04:18:15;18.42;;;7.53;;
67053;SDS011;53960;51.826;5.850;2023-10-31T04:20:41;16.43;;;7.37;;
67053;SDS011;53960;51.826;5.850;2023-10-31T04:23:07;16.48;;;7.18;;
67053;SDS011;53960;51.826;5.850;2023-10-31T04:25:33;15.07;;;7.17;;
67053;SDS011;53960;51.826;5.850;2023-10-31T04:27:58;14.60;;;6.65;;
67053;SDS011;53960;51.826;5.850;2023-10-31T04:30:24;14.23;;;6.17;;
67053;SDS011;53960;51.826;5.850;2023-10-31T04:32:49;13.60;;;5.90;;
67053;SDS011;53960;51.826;5.850;2023-10-31T04:35:14;13.47;;;5.47;;
67053;SDS011;53960;51.826;5.850;2023-10-31T04:37:40;13.82;;;6.00;;
67053;SDS011;53960;51.826;5.850;2023-10-31T04:40:06;15.27;;;5.47;;
67053;SDS011;53960;51.826;5.850;2023-10-31T04:42:32;12.90;;;5.47;;
67053;SDS011;53960;51.826;5.850;2023-10-31T04:44:58;12.40;;;5.33;;
67053;SDS011;53960;51.826;5.850;2023-10-31T04:47:24;12.23;;;4.85;;
67053;SDS011;53960;51.826;5.850;2023-10-31T04:49:50;11.97;;;4.53;;
67053;SDS011;53960;51.826;5.850;2023-10-31T04:52:15;11.98;;;4.55;;
67053;SDS011;53960;51.826;5.850;2023-10-31T04:54:42;12.77;;;4.13;;
67053;SDS011;53960;51.826;5.850;2023-10-31T04:57:07;10.17;;;3.53;;
67053;SDS011;53960;51.826;5.850;2023-10-31T04:59:32;13.07;;;3.67;;
67053;SDS011;53960;51.826;5.850;2023-10-31T05:01:58;9.97;;;3.03;;
67053;SDS011;53960;51.826;5.850;2023-10-31T05:04:23;8.80;;;3.03;;
67053;SDS011;53960;51.826;5.850;2023-10-31T05:06:49;8.60;;;2.70;;
67053;SDS011;53960;51.826;5.850;2023-10-31T05:09:14;12.02;;;3.03;;
67053;SDS011;53960;51.826;5.850;2023-10-31T05:11:39;9.87;;;2.53;;
67053;SDS011;53960;51.826;5.850;2023-10-31T05:14:07;8.63;;;2.87;;
67053;SDS011;53960;51.826;5.850;2023-10-31T05:16:38;8.50;;;2.75;;
67053;SDS011;53960;51.826;5.850;2023-10-31T05:19:05;10.52;;;3.40;;
67053;SDS011;53960;51.826;5.850;2023-10-31T05:21:30;11.23;;;4.17;;
67053;SDS011;53960;51.826;5.850;2023-10-31T05:23:55;11.70;;;4.10;;
67053;SDS011;53960;51.826;5.850;2023-10-31T05:26:21;11.80;;;4.53;;
67053;SDS011;53960;51.826;5.850;2023-10-31T05:28:46;11.40;;;4.00;;
67053;SDS011;53960;51.826;5.850;2023-10-31T05:31:14;9.93;;;3.93;;
67053;SDS011;53960;51.826;5.850;2023-10-31T05:33:40;10.75;;;3.85;;
67053;SDS011;53960;51.826;5.850;2023-10-31T05:36:06;11.87;;;4.17;;
67053;SDS011;53960;51.826;5.850;2023-10-31T05:38:31;11.00;;;3.85;;
67053;SDS011;53960;51.826;5.850;2023-10-31T05:40:57;11.10;;;3.60;;
67053;SDS011;53960;51.826;5.850;2023-10-31T05:43:22;10.90;;;3.30;;
67053;SDS011;53960;51.826;5.850;2023-10-31T05:45:47;9.93;;;3.23;;
67053;SDS011;53960;51.826;5.850;2023-10-31T05:48:13;9.40;;;3.10;;
67053;SDS011;53960;51.826;5.850;2023-10-31T05:50:39;10.80;;;3.47;;
67053;SDS011;53960;51.826;5.850;2023-10-31T05:53:06;10.77;;;3.42;;
67053;SDS011;53960;51.826;5.850;2023-10-31T05:55:31;12.40;;;3.47;;
67053;SDS011;53960;51.826;5.850;2023-10-31T05:57:59;10.88;;;3.13;;
67053;SDS011;53960;51.826;5.850;2023-10-31T06:00:24;12.87;;;4.20;;
67053;SDS011;53960;51.826;5.850;2023-10-31T06:02:51;11.98;;;4.22;;
67053;SDS011;53960;51.826;5.850;2023-10-31T06:05:16;10.53;;;4.07;;
67053;SDS011;53960;51.826;5.850;2023-10-31T06:07:41;11.63;;;4.37;;
67053;SDS011;53960;51.826;5.850;2023-10-31T06:10:10;17.33;;;6.53;;
67053;SDS011;53960;51.826;5.850;2023-10-31T06:12:35;15.17;;;6.63;;
67053;SDS011;53960;51.826;5.850;2023-10-31T06:15:01;15.07;;;6.50;;
67053;SDS011;53960;51.826;5.850;2023-10-31T06:17:26;16.63;;;7.80;;
67053;SDS011;53960;51.826;5.850;2023-10-31T06:19:52;16.63;;;7.87;;
67053;SDS011;53960;51.826;5.850;2023-10-31T06:22:17;20.30;;;9.25;;
67053;SDS011;53960;51.826;5.850;2023-10-31T06:24:42;17.57;;;8.07;;
67053;SDS011;53960;51.826;5.850;2023-10-31T06:27:08;18.47;;;8.30;;
67053;SDS011;53960;51.826;5.850;2023-10-31T06:29:33;17.90;;;8.27;;
67053;SDS011;53960;51.826;5.850;2023-10-31T06:31:58;20.73;;;8.60;;
67053;SDS011;53960;51.826;5.850;2023-10-31T06:34:24;18.03;;;8.37;;
67053;SDS011;53960;51.826;5.850;2023-10-31T06:36:49;20.80;;;8.27;;
67053;SDS011;53960;51.826;5.850;2023-10-31T06:39:17;19.92;;;8.55;;
67053;SDS011;53960;51.826;5.850;2023-10-31T06:41:42;18.03;;;8.50;;
67053;SDS011;53960;51.826;5.850;2023-10-31T06:44:07;20.40;;;8.83;;
67053;SDS011;53960;51.826;5.850;2023-10-31T06:46:33;19.13;;;8.30;;
67053;SDS011;53960;51.826;5.850;2023-10-31T06:48:58;18.80;;;9.20;;
67053;SDS011;53960;51.826;5.850;2023-10-31T06:51:23;20.10;;;9.45;;
67053;SDS011;53960;51.826;5.850;2023-10-31T06:53:49;19.10;;;9.27;;
67053;SDS011;53960;51.826;5.850;2023-10-31T06:56:16;21.37;;;9.37;;
67053;SDS011;53960;51.826;5.850;2023-10-31T06:58:41;21.00;;;9.75;;
67053;SDS011;53960;51.826;5.850;2023-10-31T07:01:06;20.30;;;9.80;;
67053;SDS011;53960;51.826;5.850;2023-10-31T07:03:31;21.67;;;9.67;;
67053;SDS011;53960;51.826;5.850;2023-10-31T07:05:57;20.10;;;10.07;;
67053;SDS011;53960;51.826;5.850;2023-10-31T07:08:24;21.95;;;10.48;;
67053;SDS011;53960;51.826;5.850;2023-10-31T07:10:49;22.63;;;11.23;;
67053;SDS011;53960;51.826;5.850;2023-10-31T07:13:15;21.67;;;10.93;;
67053;SDS011;53960;51.826;5.850;2023-10-31T07:15:41;21.73;;;10.63;;
67053;SDS011;53960;51.826;5.850;2023-10-31T07:18:06;24.90;;;10.88;;
67053;SDS011;53960;51.826;5.850;2023-10-31T07:20:34;26.07;;;11.90;;
67053;SDS011;53960;51.826;5.850;2023-10-31T07:23:00;22.80;;;11.57;;
67053;SDS011;53960;51.826;5.850;2023-10-31T07:25:25;24.97;;;12.27;;
67053;SDS011;53960;51.826;5.850;2023-10-31T07:27:50;23.20;;;12.10;;
67053;SDS011;53960;51.826;5.850;2023-10-31T07:30:16;27.03;;;12.00;;
67053;SDS011;53960;51.826;5.850;2023-10-31T07:32:41;23.17;;;11.57;;
67053;SDS011;53960;51.826;5.850;2023-10-31T07:35:07;23.10;;;11.57;;
67053;SDS011;53960;51.826;5.850;2023-10-31T07:37:33;23.43;;;11.27;;
67053;SDS011;53960;51.826;5.850;2023-10-31T07:39:58;21.53;;;10.63;;
67053;SDS011;53960;51.826;5.850;2023-10-31T07:42:23;22.90;;;10.40;;
67053;SDS011;53960;51.826;5.850;2023-10-31T07:44:49;21.70;;;10.93;;
67053;SDS011;53960;51.826;5.850;2023-10-31T07:47:15;23.40;;;11.02;;
67053;SDS011;53960;51.826;5.850;2023-10-31T07:49:40;20.70;;;10.43;;
67053;SDS011;53960;51.826;5.850;2023-10-31T07:52:06;21.00;;;10.40;;
67053;SDS011;53960;51.826;5.850;2023-10-31T07:54:31;20.63;;;9.63;;
67053;SDS011;53960;51.826;5.850;2023-10-31T07:56:57;19.58;;;9.25;;
67053;SDS011;53960;51.826;5.850;2023-10-31T07:59:22;20.37;;;9.83;;
67053;SDS011;53960;51.826;5.850;2023-10-31T08:01:47;19.97;;;10.23;;
67053;SDS011;53960;51.826;5.850;2023-10-31T08:04:13;18.27;;;9.07;;
67053;SDS011;53960;51.826;5.850;2023-10-31T08:06:40;19.23;;;9.80;;
67053;SDS011;53960;51.826;5.850;2023-10-31T08:09:05;19.15;;;8.52;;
67053;SDS011;53960;51.826;5.850;2023-10-31T08:11:31;19.67;;;9.57;;
67053;SDS011;53960;51.826;5.850;2023-10-31T08:13:57;17.80;;;7.97;;
67053;SDS011;53960;51.826;5.850;2023-10-31T08:16:22;23.67;;;8.77;;
67053;SDS011;53960;51.826;5.850;2023-10-31T08:18:48;17.20;;;8.32;;
67053;SDS011;53960;51.826;5.850;2023-10-31T08:21:14;15.90;;;8.00;;
67053;SDS011;53960;51.826;5.850;2023-10-31T08:23:39;16.97;;;7.90;;
67053;SDS011;53960;51.826;5.850;2023-10-31T08:26:05;17.55;;;7.57;;
67053;SDS011;53960;51.826;5.850;2023-10-31T08:28:30;16.10;;;7.63;;
67053;SDS011;53960;51.826;5.850;2023-10-31T08:30:56;15.13;;;6.77;;
67053;SDS011;53960;51.826;5.850;2023-10-31T08:33:22;17.38;;;7.45;;
67053;SDS011;53960;51.826;5.850;2023-10-31T08:35:48;14.70;;;7.17;;
67053;SDS011;53960;51.826;5.850;2023-10-31T08:38:13;16.13;;;7.32;;
67053;SDS011;53960;51.826;5.850;2023-10-31T08:40:38;15.60;;;7.03;;
67053;SDS011;53960;51.826;5.850;2023-10-31T08:43:04;21.77;;;7.23;;
67053;SDS011;53960;51.826;5.850;2023-10-31T08:45:31;14.13;;;6.72;;
67053;SDS011;53960;51.826;5.850;2023-10-31T08:47:57;17.43;;;7.67;;
67053;SDS011;53960;51.826;5.850;2023-10-31T08:50:22;16.35;;;8.00;;
67053;SDS011;53960;51.826;5.850;2023-10-31T08:52:47;15.73;;;7.37;;
67053;SDS011;53960;51.826;5.850;2023-10-31T08:55:13;16.77;;;7.30;;
67053;SDS011;53960;51.826;5.850;2023-10-31T08:57:38;14.70;;;6.67;;
67053;SDS011;53960;51.826;5.850;2023-10-31T09:00:05;15.27;;;7.33;;
67053;SDS011;53960;51.826;5.850;2023-10-31T09:02:31;14.73;;;6.93;;
67053;SDS011;53960;51.826;5.850;2023-10-31T09:04:56;15.33;;;7.17;;
67053;SDS011;53960;51.826;5.850;2023-10-31T09:07:22;15.82;;;7.32;;
67053;SDS011;53960;51.826;5.850;2023-10-31T09:09:48;17.43;;;7.90;;
67053;SDS011;53960;51.826;5.850;2023-10-31T09:12:14;19.30;;;7.35;;
67053;SDS011;53960;51.826;5.850;2023-10-31T09:14:39;17.17;;;7.20;;
67053;SDS011;53960;51.826;5.850;2023-10-31T09:17:06;19.80;;;8.95;;
67053;SDS011;53960;51.826;5.850;2023-10-31T09:19:32;17.87;;;8.73;;
67053;SDS011;53960;51.826;5.850;2023-10-31T09:21:57;17.77;;;9.33;;
67053;SDS011;53960;51.826;5.850;2023-10-31T09:24:23;17.03;;;9.37;;
67053;SDS011;53960;51.826;5.850;2023-10-31T09:26:49;18.20;;;9.43;;
67053;SDS011;53960;51.826;5.850;2023-10-31T09:29:14;17.17;;;9.20;;
67053;SDS011;53960;51.826;5.850;2023-10-31T09:31:39;18.33;;;8.57;;
67053;SDS011;53960;51.826;5.850;2023-10-31T09:34:05;17.27;;;9.13;;
67053;SDS011;53960;51.826;5.850;2023-10-31T09:36:33;18.70;;;9.57;;
67053;SDS011;53960;51.826;5.850;2023-10-31T09:39:02;18.38;;;9.45;;
67053;SDS011;53960;51.826;5.850;2023-10-31T09:41:28;18.83;;;9.63;;
67053;SDS011;53960;51.826;5.850;2023-10-31T09:43:53;18.33;;;9.80;;
67053;SDS011;53960;51.826;5.850;2023-10-31T09:46:19;15.63;;;9.00;;
67053;SDS011;53960;51.826;5.850;2023-10-31T09:48:46;19.02;;;9.30;;
67053;SDS011;53960;51.826;5.850;2023-10-31T09:51:12;20.38;;;10.15;;
67053;SDS011;53960;51.826;5.850;2023-10-31T09:53:38;19.00;;;10.20;;
67053;SDS011;53960;51.826;5.850;2023-10-31T09:56:04;20.13;;;9.82;;
67053;SDS011;53960;51.826;5.850;2023-10-31T09:58:31;19.02;;;10.07;;
67053;SDS011;53960;51.826;5.850;2023-10-31T10:00:57;18.27;;;10.30;;
67053;SDS011;53960;51.826;5.850;2023-10-31T10:03:22;21.03;;;10.47;;
67053;SDS011;53960;51.826;5.850;2023-10-31T10:05:48;19.08;;;10.82;;
67053;SDS011;53960;51.826;5.850;2023-10-31T10:08:14;21.75;;;11.10;;
67053;SDS011;53960;51.826;5.850;2023-10-31T10:10:40;18.92;;;10.27;;
67053;SDS011;53960;51.826;5.850;2023-10-31T10:13:05;21.03;;;10.73;;
67053;SDS011;53960;51.826;5.850;2023-10-31T10:15:42;20.80;;;10.07;;
67053;SDS011;53960;51.826;5.850;2023-10-31T10:18:08;20.08;;;10.60;;
67053;SDS011;53960;51.826;5.850;2023-10-31T10:20:33;18.83;;;10.93;;
67053;SDS011;53960;51.826;5.850;2023-10-31T10:23:02;19.57;;;10.87;;
67053;SDS011;53960;51.826;5.850;2023-10-31T10:25:29;18.30;;;10.18;;
67053;SDS011;53960;51.826;5.850;2023-10-31T10:27:55;20.08;;;10.95;;
67053;SDS011;53960;51.826;5.850;2023-10-31T10:30:20;24.50;;;10.70;;
67053;SDS011;53960;51.826;5.850;2023-10-31T10:32:48;21.37;;;11.00;;
67053;SDS011;53960;51.826;5.850;2023-10-31T10:35:16;23.15;;;11.65;;
67053;SDS011;53960;51.826;5.850;2023-10-31T10:37:41;20.47;;;11.37;;
67053;SDS011;53960;51.826;5.850;2023-10-31T10:40:08;21.08;;;11.35;;
67053;SDS011;53960;51.826;5.850;2023-10-31T10:42:45;24.58;;;11.80;;
67053;SDS011;53960;51.826;5.850;2023-10-31T10:45:12;27.00;;;12.63;;
67053;SDS011;53960;51.826;5.850;2023-10-31T10:47:40;23.33;;;11.27;;
67053;SDS011;53960;51.826;5.850;2023-10-31T10:50:11;29.63;;;12.37;;
67053;SDS011;53960;51.826;5.850;2023-10-31T10:52:48;23.98;;;11.55;;
67053;SDS011;53960;51.826;5.850;2023-10-31T10:55:21;27.70;;;11.77;;
67053;SDS011;53960;51.826;5.850;2023-10-31T10:58:00;24.52;;;12.07;;
67053;SDS011;53960;51.826;5.850;2023-10-31T11:00:27;25.20;;;11.98;;
67053;SDS011;53960;51.826;5.850;2023-10-31T11:02:54;32.37;;;13.87;;
67053;SDS011;53960;51.826;5.850;2023-10-31T11:05:21;35.25;;;15.50;;
67053;SDS011;53960;51.826;5.850;2023-10-31T11:07:48;31.75;;;13.88;;
67053;SDS011;53960;51.826;5.850;2023-10-31T11:10:14;29.08;;;13.10;;
67053;SDS011;53960;51.826;5.850;2023-10-31T11:12:41;28.55;;;13.40;;
67053;SDS011;53960;51.826;5.850;2023-10-31T11:15:08;26.43;;;12.37;;
67053;SDS011;53960;51.826;5.850;2023-10-31T11:17:39;25.70;;;11.73;;
67053;SDS011;53960;51.826;5.850;2023-10-31T11:20:07;29.25;;;12.57;;
67053;SDS011;53960;51.826;5.850;2023-10-31T11:22:42;28.43;;;11.80;;
67053;SDS011;53960;51.826;5.850;2023-10-31T11:25:15;25.20;;;10.77;;
67053;SDS011;53960;51.826;5.850;2023-10-31T11:27:45;27.70;;;11.93;;
67053;SDS011;53960;51.826;5.850;2023-10-31T11:30:27;27.70;;;12.57;;
67053;SDS011;53960;51.826;5.850;2023-10-31T11:32:54;24.77;;;11.20;;
67053;SDS011;53960;51.826;5.850;2023-10-31T11:35:21;26.50;;;11.40;;
67053;SDS011;53960;51.826;5.850;2023-10-31T11:37:48;24.48;;;10.65;;
67053;SDS011;53960;51.826;5.850;2023-10-31T11:40:21;25.83;;;10.25;;
67053;SDS011;53960;51.826;5.850;2023-10-31T11:42:48;25.33;;;10.63;;
67053;SDS011;53960;51.826;5.850;2023-10-31T11:45:41;24.33;;;10.32;;
67053;SDS011;53960;51.826;5.850;2023-10-31T11:48:09;25.52;;;11.25;;
67053;SDS011;53960;51.826;5.850;2023-10-31T11:50:35;25.23;;;10.88;;
67053;SDS011;53960;51.826;5.850;2023-10-31T11:53:11;28.15;;;10.65;;
67053;SDS011;53960;51.826;5.850;2023-10-31T11:55:42;27.03;;;11.00;;
67053;SDS011;53960;51.826;5.850;2023-10-31T11:58:21;25.85;;;11.10;;
67053;SDS011;53960;51.826;5.850;2023-10-31T12:00:48;24.90;;;11.05;;
67053;SDS011;53960;51.826;5.850;2023-10-31T12:03:16;23.73;;;10.60;;
67053;SDS011;53960;51.826;5.850;2023-10-31T12:05:55;20.95;;;9.60;;
67053;SDS011;53960;51.826;5.850;2023-10-31T12:08:28;27.43;;;10.80;;
67053;SDS011;53960;51.826;5.850;2023-10-31T12:13:31;26.50;;;9.98;;
67053;SDS011;53960;51.826;5.850;2023-10-31T12:15:56;25.07;;;10.33;;
67053;SDS011;53960;51.826;5.850;2023-10-31T12:18:21;26.27;;;11.50;;
67053;SDS011;53960;51.826;5.850;2023-10-31T12:20:50;23.42;;;10.55;;
67053;SDS011;53960;51.826;5.850;2023-10-31T12:23:17;22.75;;;10.15;;
67053;SDS011;53960;51.826;5.850;2023-10-31T12:25:46;25.10;;;9.40;;
67053;SDS011;53960;51.826;5.850;2023-10-31T12:28:16;25.08;;;9.55;;
67053;SDS011;53960;51.826;5.850;2023-10-31T12:30:45;25.15;;;10.10;;
67053;SDS011;53960;51.826;5.850;2023-10-31T12:33:11;26.65;;;10.95;;
67053;SDS011;53960;51.826;5.850;2023-10-31T12:35:37;22.00;;;9.77;;
67053;SDS011;53960;51.826;5.850;2023-10-31T12:38:03;21.85;;;9.57;;
67053;SDS011;53960;51.826;5.850;2023-10-31T12:40:29;23.42;;;9.60;;
67053;SDS011;53960;51.826;5.850;2023-10-31T12:42:55;23.97;;;9.80;;
67053;SDS011;53960;51.826;5.850;2023-10-31T12:45:20;20.73;;;8.98;;
67053;SDS011;53960;51.826;5.850;2023-10-31T12:47:59;23.13;;;9.80;;
67053;SDS011;53960;51.826;5.850;2023-10-31T12:50:30;22.00;;;8.85;;
67053;SDS011;53960;51.826;5.850;2023-10-31T12:52:56;21.83;;;8.67;;
67053;SDS011;53960;51.826;5.850;2023-10-31T12:55:25;24.52;;;9.38;;
67053;SDS011;53960;51.826;5.850;2023-10-31T12:57:55;21.38;;;8.85;;
67053;SDS011;53960;51.826;5.850;2023-10-31T13:00:22;21.92;;;9.00;;
67053;SDS011;53960;51.826;5.850;2023-10-31T13:02:51;20.30;;;8.80;;
67053;SDS011;53960;51.826;5.850;2023-10-31T13:05:17;19.80;;;8.50;;
67053;SDS011;53960;51.826;5.850;2023-10-31T13:07:49;18.45;;;8.27;;
67053;SDS011;53960;51.826;5.850;2023-10-31T13:10:17;19.48;;;7.90;;
67053;SDS011;53960;51.826;5.850;2023-10-31T13:12:44;17.70;;;7.60;;
67053;SDS011;53960;51.826;5.850;2023-10-31T13:15:13;20.75;;;8.27;;
67053;SDS011;53960;51.826;5.850;2023-10-31T13:17:39;17.17;;;6.93;;
67053;SDS011;53960;51.826;5.850;2023-10-31T13:20:07;16.30;;;7.15;;
67053;SDS011;53960;51.826;5.850;2023-10-31T13:22:34;15.30;;;6.38;;
67053;SDS011;53960;51.826;5.850;2023-10-31T13:25:01;25.88;;;7.00;;
67053;SDS011;53960;51.826;5.850;2023-10-31T13:27:29;14.27;;;6.10;;
67053;SDS011;53960;51.826;5.850;2023-10-31T13:30:00;16.33;;;6.90;;
67053;SDS011;53960;51.826;5.850;2023-10-31T13:32:26;15.98;;;6.15;;
67053;SDS011;53960;51.826;5.850;2023-10-31T13:34:51;16.80;;;7.23;;
67053;SDS011;53960;51.826;5.850;2023-10-31T13:37:17;16.67;;;6.35;;
67053;SDS011;53960;51.826;5.850;2023-10-31T13:39:42;13.10;;;6.00;;
67053;SDS011;53960;51.826;5.850;2023-10-31T13:42:07;14.33;;;5.93;;
67053;SDS011;53960;51.826;5.850;2023-10-31T13:44:35;13.77;;;5.95;;
67053;SDS011;53960;51.826;5.850;2023-10-31T13:47:01;13.33;;;5.47;;
67053;SDS011;53960;51.826;5.850;2023-10-31T13:49:26;13.27;;;5.67;;
67053;SDS011;53960;51.826;5.850;2023-10-31T13:51:51;13.32;;;5.25;;
67053;SDS011;53960;51.826;5.850;2023-10-31T13:54:17;13.83;;;5.63;;
67053;SDS011;53960;51.826;5.850;2023-10-31T13:56:42;13.47;;;5.20;;
67053;SDS011;53960;51.826;5.850;2023-10-31T13:59:07;11.93;;;5.20;;
67053;SDS011;53960;51.826;5.850;2023-10-31T14:01:37;12.68;;;5.15;;
67053;SDS011;53960;51.826;5.850;2023-10-31T14:04:02;13.27;;;5.30;;
67053;SDS011;53960;51.826;5.850;2023-10-31T14:06:27;12.27;;;5.27;;
67053;SDS011;53960;51.826;5.850;2023-10-31T14:08:55;13.13;;;5.47;;
67053;SDS011;53960;51.826;5.850;2023-10-31T14:11:21;13.85;;;5.10;;
67053;SDS011;53960;51.826;5.850;2023-10-31T14:13:47;13.13;;;5.07;;
67053;SDS011;53960;51.826;5.850;2023-10-31T14:16:12;14.63;;;5.72;;
67053;SDS011;53960;51.826;5.850;2023-10-31T14:18:38;11.23;;;4.30;;
67053;SDS011;53960;51.826;5.850;2023-10-31T14:21:04;11.63;;;3.92;;
67053;SDS011;53960;51.826;5.850;2023-10-31T14:23:29;10.37;;;3.83;;
67053;SDS011;53960;51.826;5.850;2023-10-31T14:25:55;9.57;;;3.58;;
67053;SDS011;53960;51.826;5.850;2023-10-31T14:28:21;9.70;;;2.80;;
67053;SDS011;53960;51.826;5.850;2023-10-31T14:30:46;10.60;;;2.70;;